sensor_id;sensor_type;location;lat;lon;timestamp;P1;durP1;ratioP1;P2;durP2;ratioP2
1585;SDS011;786;48.718;9.514;2023-08-06T00:02:19;13.60;;;11.50;;
1585;SDS011;786;48.718;9.514;2023-08-06T00:04:45;12.15;;;9.30;;
1585;SDS011;786;48.718;9.514;2023-08-06T00:07:11;15.70;;;12.80;;
1585;SDS011;786;48.718;9.514;2023-08-06T00:09:38;14.98;;;13.05;;
1585;SDS011;786;48.718;9.514;2023-08-06T00:12:06;15.68;;;11.88;;
1585;SDS011;786;48.718;9.514;2023-08-06T00:14:33;15.68;;;13.68;;
1585;SDS011;786;48.718;9.514;2023-08-06T00:17:00;12.05;;;10.63;;
1585;SDS011;786;48.718;9.514;2023-08-06T00:19:26;15.95;;;13.77;;
1585;SDS011;786;48.718;9.514;2023-08-06T00:21:52;12.65;;;11.40;;
1585;SDS011;786;48.718;9.514;2023-08-06T00:24:19;13.05;;;11.52;;
1585;SDS011;786;48.718;9.514;2023-08-06T00:26:45;14.07;;;11.30;;
1585;SDS011;786;48.718;9.514;2023-08-06T00:29:13;13.85;;;11.65;;
1585;SDS011;786;48.718;9.514;2023-08-06T00:31:39;14.10;;;12.50;;
1585;SDS011;786;48.718;9.514;2023-08-06T00:34:05;14.38;;;11.73;;
1585;SDS011;786;48.718;9.514;2023-08-06T00:36:32;16.05;;;13.38;;
1585;SDS011;786;48.718;9.514;2023-08-06T00:38:58;10.13;;;9.05;;
1585;SDS011;786;48.718;9.514;2023-08-06T00:41:24;12.27;;;10.95;;
1585;SDS011;786;48.718;9.514;2023-08-06T00:43:51;9.30;;;8.00;;
1585;SDS011;786;48.718;9.514;2023-08-06T00:46:18;12.07;;;9.88;;
1585;SDS011;786;48.718;9.514;2023-08-06T00:48:45;10.10;;;8.93;;
1585;SDS011;786;48.718;9.514;2023-08-06T00:51:11;10.07;;;8.95;;
1585;SDS011;786;48.718;9.514;2023-08-06T00:53:38;12.48;;;9.90;;
1585;SDS011;786;48.718;9.514;2023-08-06T00:56:05;11.75;;;10.32;;
1585;SDS011;786;48.718;9.514;2023-08-06T00:58:32;13.10;;;11.57;;
1585;SDS011;786;48.718;9.514;2023-08-06T01:00:58;10.00;;;8.98;;
1585;SDS011;786;48.718;9.514;2023-08-06T01:03:26;12.15;;;10.95;;
1585;SDS011;786;48.718;9.514;2023-08-06T01:05:52;10.82;;;8.85;;
1585;SDS011;786;48.718;9.514;2023-08-06T01:11:07;13.15;;;10.60;;
1585;SDS011;786;48.718;9.514;2023-08-06T01:13:40;13.43;;;12.02;;
1585;SDS011;786;48.718;9.514;2023-08-06T01:16:08;13.20;;;11.75;;
1585;SDS011;786;48.718;9.514;2023-08-06T01:18:36;14.60;;;13.15;;
1585;SDS011;786;48.718;9.514;2023-08-06T01:21:05;10.85;;;9.80;;
1585;SDS011;786;48.718;9.514;2023-08-06T01:23:31;13.63;;;11.02;;
1585;SDS011;786;48.718;9.514;2023-08-06T01:26:00;11.10;;;9.93;;
1585;SDS011;786;48.718;9.514;2023-08-06T01:28:33;15.93;;;14.30;;
1585;SDS011;786;48.718;9.514;2023-08-06T01:31:07;12.48;;;10.80;;
1585;SDS011;786;48.718;9.514;2023-08-06T01:33:36;13.38;;;11.55;;
1585;SDS011;786;48.718;9.514;2023-08-06T01:36:07;12.55;;;11.15;;
1585;SDS011;786;48.718;9.514;2023-08-06T01:38:33;16.15;;;14.55;;
1585;SDS011;786;48.718;9.514;2023-08-06T01:41:00;12.25;;;10.85;;
1585;SDS011;786;48.718;9.514;2023-08-06T01:43:26;11.45;;;10.25;;
1585;SDS011;786;48.718;9.514;2023-08-06T01:45:52;12.43;;;10.35;;
1585;SDS011;786;48.718;9.514;2023-08-06T01:48:19;10.98;;;9.88;;
1585;SDS011;786;48.718;9.514;2023-08-06T01:50:45;12.02;;;9.82;;
1585;SDS011;786;48.718;9.514;2023-08-06T01:53:13;11.55;;;8.88;;
1585;SDS011;786;48.718;9.514;2023-08-06T01:55:39;10.55;;;9.48;;
1585;SDS011;786;48.718;9.514;2023-08-06T01:58:05;12.68;;;10.10;;
1585;SDS011;786;48.718;9.514;2023-08-06T02:00:32;13.65;;;12.35;;
1585;SDS011;786;48.718;9.514;2023-08-06T02:02:58;10.95;;;9.77;;
1585;SDS011;786;48.718;9.514;2023-08-06T02:05:24;9.80;;;8.65;;
1585;SDS011;786;48.718;9.514;2023-08-06T02:07:51;9.02;;;7.50;;
1585;SDS011;786;48.718;9.514;2023-08-06T02:10:18;11.02;;;9.93;;
1585;SDS011;786;48.718;9.514;2023-08-06T02:12:45;9.10;;;8.13;;
1585;SDS011;786;48.718;9.514;2023-08-06T02:15:11;10.45;;;9.38;;
1585;SDS011;786;48.718;9.514;2023-08-06T02:17:37;12.68;;;11.38;;
1585;SDS011;786;48.718;9.514;2023-08-06T02:20:04;12.73;;;11.07;;
1585;SDS011;786;48.718;9.514;2023-08-06T02:22:31;12.40;;;11.07;;
1585;SDS011;786;48.718;9.514;2023-08-06T02:24:58;10.57;;;8.98;;
1585;SDS011;786;48.718;9.514;2023-08-06T02:27:26;11.85;;;10.55;;
1585;SDS011;786;48.718;9.514;2023-08-06T02:29:52;7.63;;;6.82;;
1585;SDS011;786;48.718;9.514;2023-08-06T02:32:18;10.77;;;9.68;;
1585;SDS011;786;48.718;9.514;2023-08-06T02:34:45;12.55;;;11.25;;
1585;SDS011;786;48.718;9.514;2023-08-06T02:37:11;8.90;;;8.07;;
1585;SDS011;786;48.718;9.514;2023-08-06T02:39:38;9.63;;;8.73;;
1585;SDS011;786;48.718;9.514;2023-08-06T02:42:05;10.10;;;9.05;;
1585;SDS011;786;48.718;9.514;2023-08-06T02:44:33;11.45;;;10.38;;
1585;SDS011;786;48.718;9.514;2023-08-06T02:47:00;7.60;;;6.90;;
1585;SDS011;786;48.718;9.514;2023-08-06T02:49:26;9.18;;;8.27;;
1585;SDS011;786;48.718;9.514;2023-08-06T02:51:53;7.05;;;6.30;;
1585;SDS011;786;48.718;9.514;2023-08-06T02:54:19;10.95;;;9.93;;
1585;SDS011;786;48.718;9.514;2023-08-06T02:56:46;9.68;;;8.77;;
1585;SDS011;786;48.718;9.514;2023-08-06T02:59:12;7.53;;;6.82;;
1585;SDS011;786;48.718;9.514;2023-08-06T03:01:40;7.78;;;6.97;;
1585;SDS011;786;48.718;9.514;2023-08-06T03:04:06;7.55;;;6.85;;
1585;SDS011;786;48.718;9.514;2023-08-06T03:06:33;9.13;;;8.23;;
1585;SDS011;786;48.718;9.514;2023-08-06T03:08:59;6.97;;;6.28;;
1585;SDS011;786;48.718;9.514;2023-08-06T03:11:26;6.57;;;5.97;;
1585;SDS011;786;48.718;9.514;2023-08-06T03:13:52;5.65;;;4.68;;
1585;SDS011;786;48.718;9.514;2023-08-06T03:16:18;6.75;;;6.15;;
1585;SDS011;786;48.718;9.514;2023-08-06T03:18:46;5.32;;;4.93;;
1585;SDS011;786;48.718;9.514;2023-08-06T03:21:12;6.78;;;6.22;;
1585;SDS011;786;48.718;9.514;2023-08-06T03:23:39;6.15;;;5.63;;
1585;SDS011;786;48.718;9.514;2023-08-06T03:26:05;6.10;;;5.53;;
1585;SDS011;786;48.718;9.514;2023-08-06T03:28:31;7.00;;;6.50;;
1585;SDS011;786;48.718;9.514;2023-08-06T03:30:58;4.90;;;4.40;;
1585;SDS011;786;48.718;9.514;2023-08-06T03:33:25;6.97;;;6.30;;
1585;SDS011;786;48.718;9.514;2023-08-06T03:35:53;6.53;;;4.35;;
1585;SDS011;786;48.718;9.514;2023-08-06T03:38:19;6.15;;;5.65;;
1585;SDS011;786;48.718;9.514;2023-08-06T03:40:46;6.20;;;5.68;;
1585;SDS011;786;48.718;9.514;2023-08-06T03:43:12;5.47;;;5.07;;
1585;SDS011;786;48.718;9.514;2023-08-06T03:45:39;6.22;;;5.82;;
1585;SDS011;786;48.718;9.514;2023-08-06T03:48:06;5.13;;;4.40;;
1585;SDS011;786;48.718;9.514;2023-08-06T03:50:32;6.40;;;5.90;;
1585;SDS011;786;48.718;9.514;2023-08-06T03:53:00;3.72;;;3.42;;
1585;SDS011;786;48.718;9.514;2023-08-06T03:55:27;4.97;;;4.57;;
1585;SDS011;786;48.718;9.514;2023-08-06T03:57:53;4.63;;;4.18;;
1585;SDS011;786;48.718;9.514;2023-08-06T04:00:19;5.55;;;4.95;;
1585;SDS011;786;48.718;9.514;2023-08-06T04:02:46;5.63;;;5.13;;
1585;SDS011;786;48.718;9.514;2023-08-06T04:05:12;5.10;;;4.80;;
1585;SDS011;786;48.718;9.514;2023-08-06T04:07:39;6.00;;;5.50;;
1585;SDS011;786;48.718;9.514;2023-08-06T04:10:07;5.20;;;4.78;;
1585;SDS011;786;48.718;9.514;2023-08-06T04:12:34;6.80;;;6.30;;
1585;SDS011;786;48.718;9.514;2023-08-06T04:15:01;4.07;;;3.58;;
1585;SDS011;786;48.718;9.514;2023-08-06T04:17:28;6.07;;;5.57;;
1585;SDS011;786;48.718;9.514;2023-08-06T04:19:55;5.03;;;4.03;;
1585;SDS011;786;48.718;9.514;2023-08-06T04:22:23;5.88;;;5.47;;
1585;SDS011;786;48.718;9.514;2023-08-06T04:24:49;4.30;;;4.00;;
1585;SDS011;786;48.718;9.514;2023-08-06T04:27:18;5.00;;;4.60;;
1585;SDS011;786;48.718;9.514;2023-08-06T04:29:45;5.43;;;5.03;;
1585;SDS011;786;48.718;9.514;2023-08-06T04:32:11;7.28;;;6.70;;
1585;SDS011;786;48.718;9.514;2023-08-06T04:34:42;5.95;;;5.45;;
1585;SDS011;786;48.718;9.514;2023-08-06T04:37:08;5.97;;;5.47;;
1585;SDS011;786;48.718;9.514;2023-08-06T04:39:34;5.82;;;5.32;;
1585;SDS011;786;48.718;9.514;2023-08-06T04:42:01;5.80;;;5.22;;
1585;SDS011;786;48.718;9.514;2023-08-06T04:44:29;6.20;;;5.68;;
1585;SDS011;786;48.718;9.514;2023-08-06T04:46:55;6.07;;;5.57;;
1585;SDS011;786;48.718;9.514;2023-08-06T04:49:21;6.88;;;6.25;;
1585;SDS011;786;48.718;9.514;2023-08-06T04:51:48;5.97;;;5.47;;
1585;SDS011;786;48.718;9.514;2023-08-06T04:54:14;5.55;;;5.03;;
1585;SDS011;786;48.718;9.514;2023-08-06T04:56:40;7.65;;;5.88;;
1585;SDS011;786;48.718;9.514;2023-08-06T04:59:07;10.50;;;9.55;;
1585;SDS011;786;48.718;9.514;2023-08-06T05:01:35;12.32;;;11.25;;
1585;SDS011;786;48.718;9.514;2023-08-06T05:04:01;6.40;;;5.80;;
1585;SDS011;786;48.718;9.514;2023-08-06T05:06:27;7.20;;;6.68;;
1585;SDS011;786;48.718;9.514;2023-08-06T05:08:54;4.50;;;4.10;;
1585;SDS011;786;48.718;9.514;2023-08-06T05:11:20;6.60;;;5.82;;
1585;SDS011;786;48.718;9.514;2023-08-06T05:13:46;4.45;;;4.10;;
1585;SDS011;786;48.718;9.514;2023-08-06T05:16:13;4.95;;;4.43;;
1585;SDS011;786;48.718;9.514;2023-08-06T05:18:40;4.10;;;3.70;;
1585;SDS011;786;48.718;9.514;2023-08-06T05:21:07;4.35;;;4.05;;
1585;SDS011;786;48.718;9.514;2023-08-06T05:23:33;5.30;;;4.90;;
1585;SDS011;786;48.718;9.514;2023-08-06T05:25:59;3.33;;;3.13;;
1585;SDS011;786;48.718;9.514;2023-08-06T05:28:26;4.45;;;4.15;;
1585;SDS011;786;48.718;9.514;2023-08-06T05:30:52;4.43;;;2.90;;
1585;SDS011;786;48.718;9.514;2023-08-06T05:33:19;3.60;;;3.30;;
1585;SDS011;786;48.718;9.514;2023-08-06T05:35:46;3.95;;;3.65;;
1585;SDS011;786;48.718;9.514;2023-08-06T05:38:13;3.60;;;3.30;;
1585;SDS011;786;48.718;9.514;2023-08-06T05:40:39;4.60;;;4.32;;
1585;SDS011;786;48.718;9.514;2023-08-06T05:43:05;3.13;;;2.53;;
1585;SDS011;786;48.718;9.514;2023-08-06T05:45:32;3.78;;;3.47;;
1585;SDS011;786;48.718;9.514;2023-08-06T05:47:58;3.92;;;3.47;;
1585;SDS011;786;48.718;9.514;2023-08-06T05:50:24;3.70;;;3.50;;
1585;SDS011;786;48.718;9.514;2023-08-06T05:52:52;2.45;;;2.25;;
1585;SDS011;786;48.718;9.514;2023-08-06T05:55:19;3.92;;;3.30;;
1585;SDS011;786;48.718;9.514;2023-08-06T05:57:46;3.38;;;3.15;;
1585;SDS011;786;48.718;9.514;2023-08-06T06:00:12;3.08;;;2.70;;
1585;SDS011;786;48.718;9.514;2023-08-06T06:02:38;3.38;;;3.17;;
1585;SDS011;786;48.718;9.514;2023-08-06T06:05:05;2.95;;;2.58;;
1585;SDS011;786;48.718;9.514;2023-08-06T06:07:32;2.95;;;2.75;;
1585;SDS011;786;48.718;9.514;2023-08-06T06:09:59;2.42;;;2.22;;
1585;SDS011;786;48.718;9.514;2023-08-06T06:12:26;3.60;;;3.30;;
1585;SDS011;786;48.718;9.514;2023-08-06T06:14:52;2.30;;;2.10;;
1585;SDS011;786;48.718;9.514;2023-08-06T06:17:18;3.78;;;3.47;;
1585;SDS011;786;48.718;9.514;2023-08-06T06:19:45;3.92;;;3.65;;
1585;SDS011;786;48.718;9.514;2023-08-06T06:22:11;2.42;;;2.15;;
1585;SDS011;786;48.718;9.514;2023-08-06T06:24:38;4.57;;;4.28;;
1585;SDS011;786;48.718;9.514;2023-08-06T06:27:06;3.45;;;2.67;;
1585;SDS011;786;48.718;9.514;2023-08-06T06:29:32;3.38;;;3.08;;
1585;SDS011;786;48.718;9.514;2023-08-06T06:31:58;2.78;;;2.38;;
1585;SDS011;786;48.718;9.514;2023-08-06T06:34:25;4.45;;;3.03;;
1585;SDS011;786;48.718;9.514;2023-08-06T06:36:51;2.72;;;2.47;;
1585;SDS011;786;48.718;9.514;2023-08-06T06:39:17;3.03;;;2.83;;
1585;SDS011;786;48.718;9.514;2023-08-06T06:41:44;3.42;;;3.13;;
1585;SDS011;786;48.718;9.514;2023-08-06T06:44:11;3.17;;;2.97;;
1585;SDS011;786;48.718;9.514;2023-08-06T06:46:39;4.43;;;4.20;;
1585;SDS011;786;48.718;9.514;2023-08-06T06:49:06;2.30;;;2.13;;
1585;SDS011;786;48.718;9.514;2023-08-06T06:51:32;3.70;;;3.50;;
1585;SDS011;786;48.718;9.514;2023-08-06T06:53:58;2.67;;;1.85;;
1585;SDS011;786;48.718;9.514;2023-08-06T06:56:25;3.10;;;2.90;;
1585;SDS011;786;48.718;9.514;2023-08-06T06:58:51;1.70;;;1.60;;
1585;SDS011;786;48.718;9.514;2023-08-06T07:01:19;3.22;;;3.03;;
1585;SDS011;786;48.718;9.514;2023-08-06T07:03:45;4.13;;;3.83;;
1585;SDS011;786;48.718;9.514;2023-08-06T07:06:11;3.38;;;3.17;;
1585;SDS011;786;48.718;9.514;2023-08-06T07:08:38;3.28;;;3.08;;
1585;SDS011;786;48.718;9.514;2023-08-06T07:11:05;2.20;;;2.05;;
1585;SDS011;786;48.718;9.514;2023-08-06T07:13:34;3.70;;;3.50;;
1585;SDS011;786;48.718;9.514;2023-08-06T07:16:01;1.98;;;1.88;;
1585;SDS011;786;48.718;9.514;2023-08-06T07:18:28;3.20;;;2.97;;
1585;SDS011;786;48.718;9.514;2023-08-06T07:20:55;1.95;;;1.70;;
1585;SDS011;786;48.718;9.514;2023-08-06T07:23:22;2.80;;;2.60;;
1585;SDS011;786;48.718;9.514;2023-08-06T07:25:50;3.25;;;2.88;;
1585;SDS011;786;48.718;9.514;2023-08-06T07:28:16;3.22;;;3.03;;
1585;SDS011;786;48.718;9.514;2023-08-06T07:30:43;3.33;;;3.03;;
1585;SDS011;786;48.718;9.514;2023-08-06T07:33:10;3.20;;;3.00;;
1585;SDS011;786;48.718;9.514;2023-08-06T07:35:38;2.80;;;2.70;;
1585;SDS011;786;48.718;9.514;2023-08-06T07:38:04;2.15;;;1.98;;
1585;SDS011;786;48.718;9.514;2023-08-06T07:40:31;3.40;;;3.10;;
1585;SDS011;786;48.718;9.514;2023-08-06T07:42:57;1.95;;;1.85;;
1585;SDS011;786;48.718;9.514;2023-08-06T07:45:24;3.25;;;3.05;;
1585;SDS011;786;48.718;9.514;2023-08-06T07:47:51;3.38;;;3.08;;
1585;SDS011;786;48.718;9.514;2023-08-06T07:50:18;4.68;;;3.05;;
1585;SDS011;786;48.718;9.514;2023-08-06T07:52:45;3.33;;;3.13;;
1585;SDS011;786;48.718;9.514;2023-08-06T07:55:12;3.08;;;2.88;;
1585;SDS011;786;48.718;9.514;2023-08-06T07:57:38;3.97;;;3.78;;
1585;SDS011;786;48.718;9.514;2023-08-06T08:00:05;1.70;;;1.60;;
1585;SDS011;786;48.718;9.514;2023-08-06T08:02:32;3.13;;;2.92;;
1585;SDS011;786;48.718;9.514;2023-08-06T08:04:58;1.92;;;1.83;;
1585;SDS011;786;48.718;9.514;2023-08-06T08:07:25;4.20;;;3.83;;
1585;SDS011;786;48.718;9.514;2023-08-06T08:09:54;2.55;;;2.45;;
1585;SDS011;786;48.718;9.514;2023-08-06T08:12:21;3.95;;;3.65;;
1585;SDS011;786;48.718;9.514;2023-08-06T08:14:47;3.88;;;3.58;;
1585;SDS011;786;48.718;9.514;2023-08-06T08:17:13;3.47;;;2.33;;
1585;SDS011;786;48.718;9.514;2023-08-06T08:19:40;3.00;;;2.80;;
1585;SDS011;786;48.718;9.514;2023-08-06T08:22:07;2.25;;;1.50;;
1585;SDS011;786;48.718;9.514;2023-08-06T08:24:33;3.33;;;3.13;;
1585;SDS011;786;48.718;9.514;2023-08-06T08:27:01;1.50;;;1.38;;
1585;SDS011;786;48.718;9.514;2023-08-06T08:29:27;3.17;;;2.97;;
1585;SDS011;786;48.718;9.514;2023-08-06T08:31:54;2.00;;;1.90;;
1585;SDS011;786;48.718;9.514;2023-08-06T08:34:20;3.47;;;3.28;;
1585;SDS011;786;48.718;9.514;2023-08-06T08:36:46;3.45;;;3.15;;
1585;SDS011;786;48.718;9.514;2023-08-06T08:39:15;3.33;;;3.13;;
1585;SDS011;786;48.718;9.514;2023-08-06T08:41:42;2.97;;;2.78;;
1585;SDS011;786;48.718;9.514;2023-08-06T08:44:10;2.20;;;2.10;;
1585;SDS011;786;48.718;9.514;2023-08-06T08:46:37;3.05;;;2.85;;
1585;SDS011;786;48.718;9.514;2023-08-06T08:49:04;2.13;;;2.03;;
1585;SDS011;786;48.718;9.514;2023-08-06T08:51:31;3.28;;;3.08;;
1585;SDS011;786;48.718;9.514;2023-08-06T08:53:59;1.88;;;1.77;;
1585;SDS011;786;48.718;9.514;2023-08-06T08:56:25;3.72;;;3.53;;
1585;SDS011;786;48.718;9.514;2023-08-06T08:58:51;3.63;;;3.42;;
1585;SDS011;786;48.718;9.514;2023-08-06T09:01:21;3.22;;;3.08;;
1585;SDS011;786;48.718;9.514;2023-08-06T09:03:48;3.80;;;3.60;;
1585;SDS011;786;48.718;9.514;2023-08-06T09:06:15;2.38;;;2.28;;
1585;SDS011;786;48.718;9.514;2023-08-06T09:08:46;2.85;;;2.75;;
1585;SDS011;786;48.718;9.514;2023-08-06T09:11:15;2.40;;;2.30;;
1585;SDS011;786;48.718;9.514;2023-08-06T09:13:42;2.83;;;2.67;;
1585;SDS011;786;48.718;9.514;2023-08-06T09:16:08;2.30;;;1.92;;
1585;SDS011;786;48.718;9.514;2023-08-06T09:18:36;3.20;;;2.85;;
1585;SDS011;786;48.718;9.514;2023-08-06T09:21:04;3.72;;;3.40;;
1585;SDS011;786;48.718;9.514;2023-08-06T09:23:31;2.78;;;2.67;;
1585;SDS011;786;48.718;9.514;2023-08-06T09:25:58;1.00;;;1.00;;
1585;SDS011;786;48.718;9.514;2023-08-06T09:28:25;2.90;;;2.13;;
1585;SDS011;786;48.718;9.514;2023-08-06T09:31:02;0.90;;;0.90;;
1585;SDS011;786;48.718;9.514;2023-08-06T09:33:29;1.85;;;1.85;;
1585;SDS011;786;48.718;9.514;2023-08-06T09:35:56;1.20;;;1.20;;
1585;SDS011;786;48.718;9.514;2023-08-06T09:38:23;2.17;;;2.08;;
1585;SDS011;786;48.718;9.514;2023-08-06T09:40:49;1.70;;;1.67;;
1585;SDS011;786;48.718;9.514;2023-08-06T09:43:18;1.00;;;0.90;;
1585;SDS011;786;48.718;9.514;2023-08-06T09:45:45;1.58;;;1.58;;
1585;SDS011;786;48.718;9.514;2023-08-06T09:48:11;1.38;;;1.20;;
1585;SDS011;786;48.718;9.514;2023-08-06T09:50:37;1.45;;;1.45;;
1585;SDS011;786;48.718;9.514;2023-08-06T09:53:07;1.02;;;1.02;;
1585;SDS011;786;48.718;9.514;2023-08-06T09:55:34;2.85;;;2.65;;
1585;SDS011;786;48.718;9.514;2023-08-06T09:58:00;1.40;;;1.30;;
1585;SDS011;786;48.718;9.514;2023-08-06T10:00:27;2.63;;;2.53;;
1585;SDS011;786;48.718;9.514;2023-08-06T10:02:59;1.40;;;1.40;;
1585;SDS011;786;48.718;9.514;2023-08-06T10:05:26;2.60;;;2.50;;
1585;SDS011;786;48.718;9.514;2023-08-06T10:07:53;2.47;;;2.38;;
1585;SDS011;786;48.718;9.514;2023-08-06T10:10:22;1.80;;;1.80;;
1585;SDS011;786;48.718;9.514;2023-08-06T10:12:49;1.60;;;1.60;;
1585;SDS011;786;48.718;9.514;2023-08-06T10:15:17;1.40;;;1.40;;
1585;SDS011;786;48.718;9.514;2023-08-06T10:17:47;1.65;;;1.55;;
1585;SDS011;786;48.718;9.514;2023-08-06T10:20:13;1.63;;;1.52;;
1585;SDS011;786;48.718;9.514;2023-08-06T10:22:42;1.52;;;1.52;;
1585;SDS011;786;48.718;9.514;2023-08-06T10:25:09;1.55;;;1.15;;
1585;SDS011;786;48.718;9.514;2023-08-06T10:27:39;2.20;;;2.10;;
1585;SDS011;786;48.718;9.514;2023-08-06T10:32:55;1.63;;;1.52;;
1585;SDS011;786;48.718;9.514;2023-08-06T10:35:29;2.47;;;2.38;;
1585;SDS011;786;48.718;9.514;2023-08-06T10:37:59;1.40;;;1.40;;
1585;SDS011;786;48.718;9.514;2023-08-06T10:40:29;1.80;;;1.70;;
1585;SDS011;786;48.718;9.514;2023-08-06T10:42:57;1.67;;;1.40;;
1585;SDS011;786;48.718;9.514;2023-08-06T10:45:24;2.03;;;1.92;;
1585;SDS011;786;48.718;9.514;2023-08-06T10:47:53;2.15;;;2.05;;
1585;SDS011;786;48.718;9.514;2023-08-06T10:50:20;1.92;;;1.88;;
1585;SDS011;786;48.718;9.514;2023-08-06T10:52:47;2.10;;;2.00;;
1585;SDS011;786;48.718;9.514;2023-08-06T10:55:13;1.65;;;1.58;;
1585;SDS011;786;48.718;9.514;2023-08-06T10:57:40;1.30;;;1.30;;
1585;SDS011;786;48.718;9.514;2023-08-06T11:00:08;1.08;;;1.00;;
1585;SDS011;786;48.718;9.514;2023-08-06T11:02:38;4.20;;;1.25;;
1585;SDS011;786;48.718;9.514;2023-08-06T11:05:06;1.10;;;1.10;;
1585;SDS011;786;48.718;9.514;2023-08-06T11:07:33;1.70;;;1.60;;
1585;SDS011;786;48.718;9.514;2023-08-06T11:10:03;1.40;;;1.30;;
1585;SDS011;786;48.718;9.514;2023-08-06T11:12:30;2.13;;;2.03;;
1585;SDS011;786;48.718;9.514;2023-08-06T11:14:56;1.48;;;1.38;;
1585;SDS011;786;48.718;9.514;2023-08-06T11:17:24;2.45;;;2.30;;
1585;SDS011;786;48.718;9.514;2023-08-06T11:19:50;1.95;;;1.85;;
1585;SDS011;786;48.718;9.514;2023-08-06T11:22:17;2.20;;;1.83;;
1585;SDS011;786;48.718;9.514;2023-08-06T11:24:43;1.85;;;1.77;;
1585;SDS011;786;48.718;9.514;2023-08-06T11:27:13;1.40;;;1.30;;
1585;SDS011;786;48.718;9.514;2023-08-06T11:29:40;1.40;;;1.35;;
1585;SDS011;786;48.718;9.514;2023-08-06T11:32:07;1.20;;;1.10;;
1585;SDS011;786;48.718;9.514;2023-08-06T11:34:35;2.15;;;1.95;;
1585;SDS011;786;48.718;9.514;2023-08-06T11:37:02;1.33;;;1.30;;
1585;SDS011;786;48.718;9.514;2023-08-06T11:39:30;2.22;;;2.13;;
1585;SDS011;786;48.718;9.514;2023-08-06T11:41:56;2.10;;;2.00;;
1585;SDS011;786;48.718;9.514;2023-08-06T11:44:25;2.75;;;2.65;;
1585;SDS011;786;48.718;9.514;2023-08-06T11:46:52;2.25;;;2.15;;
1585;SDS011;786;48.718;9.514;2023-08-06T11:49:21;2.28;;;2.17;;
1585;SDS011;786;48.718;9.514;2023-08-06T11:52:06;1.70;;;1.60;;
1585;SDS011;786;48.718;9.514;2023-08-06T11:54:34;2.05;;;1.95;;
1585;SDS011;786;48.718;9.514;2023-08-06T11:57:02;1.20;;;1.20;;
1585;SDS011;786;48.718;9.514;2023-08-06T11:59:28;1.80;;;1.70;;
1585;SDS011;786;48.718;9.514;2023-08-06T12:01:55;1.85;;;1.85;;
1585;SDS011;786;48.718;9.514;2023-08-06T12:04:21;2.85;;;2.67;;
1585;SDS011;786;48.718;9.514;2023-08-06T12:06:49;1.80;;;1.70;;
1585;SDS011;786;48.718;9.514;2023-08-06T12:09:16;1.80;;;1.70;;
1585;SDS011;786;48.718;9.514;2023-08-06T12:11:42;1.67;;;1.58;;
1585;SDS011;786;48.718;9.514;2023-08-06T12:14:08;1.52;;;1.42;;
1585;SDS011;786;48.718;9.514;2023-08-06T12:16:35;1.75;;;1.65;;
1585;SDS011;786;48.718;9.514;2023-08-06T12:19:02;1.50;;;1.40;;
1585;SDS011;786;48.718;9.514;2023-08-06T12:21:29;3.08;;;2.88;;
1585;SDS011;786;48.718;9.514;2023-08-06T12:23:57;2.05;;;1.95;;
1585;SDS011;786;48.718;9.514;2023-08-06T12:26:23;2.30;;;2.20;;
1585;SDS011;786;48.718;9.514;2023-08-06T12:28:49;2.30;;;2.20;;
1585;SDS011;786;48.718;9.514;2023-08-06T12:31:16;1.88;;;1.77;;
1585;SDS011;786;48.718;9.514;2023-08-06T12:33:42;2.17;;;2.05;;
1585;SDS011;786;48.718;9.514;2023-08-06T12:36:08;1.95;;;1.85;;
1585;SDS011;786;48.718;9.514;2023-08-06T12:38:35;1.90;;;1.80;;
1585;SDS011;786;48.718;9.514;2023-08-06T12:41:02;1.48;;;1.38;;
1585;SDS011;786;48.718;9.514;2023-08-06T12:43:29;2.88;;;2.67;;
1585;SDS011;786;48.718;9.514;2023-08-06T12:45:55;2.47;;;2.38;;
1585;SDS011;786;48.718;9.514;2023-08-06T12:48:21;3.05;;;2.85;;
1585;SDS011;786;48.718;9.514;2023-08-06T12:50:48;2.65;;;2.47;;
1585;SDS011;786;48.718;9.514;2023-08-06T12:53:14;2.05;;;1.95;;
1585;SDS011;786;48.718;9.514;2023-08-06T12:55:41;2.53;;;2.33;;
1585;SDS011;786;48.718;9.514;2023-08-06T12:58:08;2.45;;;2.25;;
1585;SDS011;786;48.718;9.514;2023-08-06T13:00:35;2.38;;;2.28;;
1585;SDS011;786;48.718;9.514;2023-08-06T13:03:01;1.92;;;1.83;;
1585;SDS011;786;48.718;9.514;2023-08-06T13:05:28;2.67;;;2.55;;
1585;SDS011;786;48.718;9.514;2023-08-06T13:07:55;2.20;;;2.00;;
1585;SDS011;786;48.718;9.514;2023-08-06T13:10:21;2.70;;;2.50;;
1585;SDS011;786;48.718;9.514;2023-08-06T13:12:49;2.00;;;1.80;;
1585;SDS011;786;48.718;9.514;2023-08-06T13:15:17;1.92;;;1.83;;
1585;SDS011;786;48.718;9.514;2023-08-06T13:17:45;2.33;;;2.22;;
1585;SDS011;786;48.718;9.514;2023-08-06T13:20:12;5.55;;;5.25;;
1585;SDS011;786;48.718;9.514;2023-08-06T13:22:38;4.63;;;4.22;;
1585;SDS011;786;48.718;9.514;2023-08-06T13:25:05;2.70;;;2.50;;
1585;SDS011;786;48.718;9.514;2023-08-06T13:27:31;2.65;;;2.55;;
1585;SDS011;786;48.718;9.514;2023-08-06T13:29:58;1.95;;;1.85;;
1585;SDS011;786;48.718;9.514;2023-08-06T13:32:25;2.83;;;2.72;;
1585;SDS011;786;48.718;9.514;2023-08-06T13:34:52;2.22;;;2.03;;
1585;SDS011;786;48.718;9.514;2023-08-06T13:37:18;2.00;;;1.90;;
1585;SDS011;786;48.718;9.514;2023-08-06T13:39:44;3.08;;;2.92;;
1585;SDS011;786;48.718;9.514;2023-08-06T13:42:11;1.67;;;1.58;;
1585;SDS011;786;48.718;9.514;2023-08-06T13:44:37;1.95;;;1.85;;
1585;SDS011;786;48.718;9.514;2023-08-06T13:47:03;1.90;;;1.80;;
1585;SDS011;786;48.718;9.514;2023-08-06T13:49:31;2.92;;;2.83;;
1585;SDS011;786;48.718;9.514;2023-08-06T13:51:57;2.65;;;2.45;;
1585;SDS011;786;48.718;9.514;2023-08-06T13:54:24;3.17;;;2.97;;
1585;SDS011;786;48.718;9.514;2023-08-06T13:56:50;2.00;;;1.90;;
1585;SDS011;786;48.718;9.514;2023-08-06T13:59:18;2.53;;;2.42;;
1585;SDS011;786;48.718;9.514;2023-08-06T14:01:44;2.17;;;2.08;;
1585;SDS011;786;48.718;9.514;2023-08-06T14:04:11;2.63;;;2.13;;
1585;SDS011;786;48.718;9.514;2023-08-06T14:06:39;1.83;;;1.67;;
1585;SDS011;786;48.718;9.514;2023-08-06T14:09:05;1.80;;;1.70;;
1585;SDS011;786;48.718;9.514;2023-08-06T14:11:32;2.67;;;2.58;;
1585;SDS011;786;48.718;9.514;2023-08-06T14:13:59;2.00;;;1.90;;
1585;SDS011;786;48.718;9.514;2023-08-06T14:16:25;2.35;;;2.25;;
1585;SDS011;786;48.718;9.514;2023-08-06T14:18:52;2.30;;;2.20;;
1585;SDS011;786;48.718;9.514;2023-08-06T14:21:18;2.83;;;2.63;;
1585;SDS011;786;48.718;9.514;2023-08-06T14:23:46;2.25;;;2.13;;
1585;SDS011;786;48.718;9.514;2023-08-06T14:26:12;1.65;;;1.55;;
1585;SDS011;786;48.718;9.514;2023-08-06T14:28:40;1.67;;;1.58;;
1585;SDS011;786;48.718;9.514;2023-08-06T14:31:06;1.65;;;1.55;;
1585;SDS011;786;48.718;9.514;2023-08-06T14:33:33;2.33;;;2.22;;
1585;SDS011;786;48.718;9.514;2023-08-06T14:35:59;1.63;;;1.52;;
1585;SDS011;786;48.718;9.514;2023-08-06T14:38:26;3.08;;;2.88;;
1585;SDS011;786;48.718;9.514;2023-08-06T14:40:54;1.88;;;1.77;;
1585;SDS011;786;48.718;9.514;2023-08-06T14:43:20;2.20;;;2.10;;
1585;SDS011;786;48.718;9.514;2023-08-06T14:45:47;1.25;;;1.17;;
1585;SDS011;786;48.718;9.514;2023-08-06T14:48:13;1.80;;;1.70;;
1585;SDS011;786;48.718;9.514;2023-08-06T14:50:39;1.60;;;1.50;;
1585;SDS011;786;48.718;9.514;2023-08-06T14:53:06;2.58;;;2.38;;
1585;SDS011;786;48.718;9.514;2023-08-06T14:55:33;2.47;;;2.38;;
1585;SDS011;786;48.718;9.514;2023-08-06T14:58:01;1.65;;;1.55;;
1585;SDS011;786;48.718;9.514;2023-08-06T15:00:28;2.67;;;2.58;;
1585;SDS011;786;48.718;9.514;2023-08-06T15:02:54;2.15;;;2.05;;
1585;SDS011;786;48.718;9.514;2023-08-06T15:05:21;2.53;;;2.33;;
1585;SDS011;786;48.718;9.514;2023-08-06T15:07:47;1.95;;;1.85;;
1585;SDS011;786;48.718;9.514;2023-08-06T15:10:14;1.65;;;1.52;;
1585;SDS011;786;48.718;9.514;2023-08-06T15:12:40;2.20;;;1.38;;
1585;SDS011;786;48.718;9.514;2023-08-06T15:15:08;1.50;;;1.40;;
1585;SDS011;786;48.718;9.514;2023-08-06T15:17:35;2.47;;;2.35;;
1585;SDS011;786;48.718;9.514;2023-08-06T15:20:01;2.13;;;1.92;;
1585;SDS011;786;48.718;9.514;2023-08-06T15:22:28;3.22;;;3.13;;
1585;SDS011;786;48.718;9.514;2023-08-06T15:24:56;2.10;;;2.00;;
1585;SDS011;786;48.718;9.514;2023-08-06T15:27:23;2.72;;;2.53;;
1585;SDS011;786;48.718;9.514;2023-08-06T15:29:49;2.05;;;1.95;;
1585;SDS011;786;48.718;9.514;2023-08-06T15:32:17;1.60;;;1.50;;